sensor_id;sensor_type;location;lat;lon;timestamp;pressure;altitude;pressure_sealevel;temperature;humidity
81641;BME280;74020;50.722;-1.944;2024-03-07T00:01:46;101719.38;;;8.19;98.37
81641;BME280;74020;50.722;-1.944;2024-03-07T00:04:13;101715.48;;;8.18;98.58
81641;BME280;74020;50.722;-1.944;2024-03-07T00:06:38;101714.77;;;8.09;97.93
81641;BME280;74020;50.722;-1.944;2024-03-07T00:09:04;101711.40;;;8.12;97.50
81641;BME280;74020;50.722;-1.944;2024-03-07T00:11:30;101712.18;;;8.16;97.14
81641;BME280;74020;50.722;-1.944;2024-03-07T00:13:55;101713.57;;;8.11;98.00
81641;BME280;74020;50.722;-1.944;2024-03-07T00:16:21;101710.52;;;7.85;98.11
81641;BME280;74020;50.722;-1.944;2024-03-07T00:18:47;101709.63;;;7.66;99.21
81641;BME280;74020;50.722;-1.944;2024-03-07T00:21:12;101711.55;;;7.49;100.00
81641;BME280;74020;50.722;-1.944;2024-03-07T00:23:38;101706.23;;;7.36;100.00
81641;BME280;74020;50.722;-1.944;2024-03-07T00:26:04;101700.32;;;7.13;100.00
81641;BME280;74020;50.722;-1.944;2024-03-07T00:28:29;101702.95;;;7.03;100.00
81641;BME280;74020;50.722;-1.944;2024-03-07T00:30:54;101704.74;;;6.88;100.00
81641;BME280;74020;50.722;-1.944;2024-03-07T00:33:19;101702.84;;;6.85;100.00
81641;BME280;74020;50.722;-1.944;2024-03-07T00:35:44;101703.97;;;6.79;100.00
81641;BME280;74020;50.722;-1.944;2024-03-07T00:38:09;101698.37;;;6.65;100.00
81641;BME280;74020;50.722;-1.944;2024-03-07T00:40:35;101701.35;;;6.53;100.00
81641;BME280;74020;50.722;-1.944;2024-03-07T00:43:00;101697.83;;;6.55;100.00
81641;BME280;74020;50.722;-1.944;2024-03-07T00:45:26;101699.46;;;6.45;100.00
81641;BME280;74020;50.722;-1.944;2024-03-07T00:47:51;101697.10;;;6.49;100.00
81641;BME280;74020;50.722;-1.944;2024-03-07T00:50:17;101697.92;;;6.41;100.00
81641;BME280;74020;50.722;-1.944;2024-03-07T00:52:42;101696.70;;;6.27;100.00
81641;BME280;74020;50.722;-1.944;2024-03-07T00:55:08;101697.39;;;6.28;100.00
81641;BME280;74020;50.722;-1.944;2024-03-07T00:57:33;101695.48;;;6.20;100.00
81641;BME280;74020;50.722;-1.944;2024-03-07T00:59:59;101694.16;;;6.18;100.00
81641;BME280;74020;50.722;-1.944;2024-03-07T01:02:24;101690.97;;;6.15;100.00
81641;BME280;74020;50.722;-1.944;2024-03-07T01:04:50;101688.03;;;6.10;100.00
81641;BME280;74020;50.722;-1.944;2024-03-07T01:07:16;101687.47;;;6.03;100.00
81641;BME280;74020;50.722;-1.944;2024-03-07T01:09:41;101686.49;;;6.08;100.00
81641;BME280;74020;50.722;-1.944;2024-03-07T01:12:07;101680.07;;;5.95;100.00
81641;BME280;74020;50.722;-1.944;2024-03-07T01:14:33;101679.92;;;5.97;100.00
81641;BME280;74020;50.722;-1.944;2024-03-07T01:16:58;101676.09;;;5.98;100.00
81641;BME280;74020;50.722;-1.944;2024-03-07T01:19:24;101672.21;;;5.91;100.00
81641;BME280;74020;50.722;-1.944;2024-03-07T01:21:49;101671.66;;;5.89;100.00
81641;BME280;74020;50.722;-1.944;2024-03-07T01:24:15;101672.75;;;5.88;100.00
81641;BME280;74020;50.722;-1.944;2024-03-07T01:26:40;101670.16;;;5.90;100.00
81641;BME280;74020;50.722;-1.944;2024-03-07T01:29:05;101669.54;;;5.91;100.00
81641;BME280;74020;50.722;-1.944;2024-03-07T01:31:31;101666.96;;;6.00;100.00
81641;BME280;74020;50.722;-1.944;2024-03-07T01:33:56;101664.90;;;5.97;100.00
81641;BME280;74020;50.722;-1.944;2024-03-07T01:36:22;101662.69;;;5.99;100.00
81641;BME280;74020;50.722;-1.944;2024-03-07T01:38:47;101661.59;;;6.00;100.00
81641;BME280;74020;50.722;-1.944;2024-03-07T01:41:13;101657.26;;;5.93;100.00
81641;BME280;74020;50.722;-1.944;2024-03-07T01:43:38;101651.05;;;5.81;100.00
81641;BME280;74020;50.722;-1.944;2024-03-07T01:46:04;101652.92;;;5.90;100.00
81641;BME280;74020;50.722;-1.944;2024-03-07T01:48:30;101650.94;;;5.92;100.00
81641;BME280;74020;50.722;-1.944;2024-03-07T01:50:56;101648.45;;;5.77;100.00
81641;BME280;74020;50.722;-1.944;2024-03-07T01:53:21;101645.52;;;5.75;100.00
81641;BME280;74020;50.722;-1.944;2024-03-07T01:55:47;101645.11;;;5.81;100.00
81641;BME280;74020;50.722;-1.944;2024-03-07T01:58:14;101640.77;;;5.78;100.00
81641;BME280;74020;50.722;-1.944;2024-03-07T02:00:38;101640.06;;;5.81;100.00
81641;BME280;74020;50.722;-1.944;2024-03-07T02:03:04;101638.27;;;5.78;100.00
81641;BME280;74020;50.722;-1.944;2024-03-07T02:05:29;101635.52;;;5.69;100.00
81641;BME280;74020;50.722;-1.944;2024-03-07T02:07:54;101636.27;;;5.83;100.00
81641;BME280;74020;50.722;-1.944;2024-03-07T02:10:19;101635.22;;;5.81;100.00
81641;BME280;74020;50.722;-1.944;2024-03-07T02:12:46;101632.68;;;5.83;100.00
81641;BME280;74020;50.722;-1.944;2024-03-07T02:15:11;101631.93;;;5.83;100.00
81641;BME280;74020;50.722;-1.944;2024-03-07T02:17:37;101632.39;;;5.89;100.00
81641;BME280;74020;50.722;-1.944;2024-03-07T02:20:01;101632.15;;;5.82;100.00
81641;BME280;74020;50.722;-1.944;2024-03-07T02:22:27;101629.93;;;5.87;100.00
81641;BME280;74020;50.722;-1.944;2024-03-07T02:24:52;101626.40;;;5.87;100.00
81641;BME280;74020;50.722;-1.944;2024-03-07T02:27:17;101622.20;;;5.80;100.00
81641;BME280;74020;50.722;-1.944;2024-03-07T02:29:43;101618.51;;;5.74;100.00
81641;BME280;74020;50.722;-1.944;2024-03-07T02:32:08;101615.09;;;5.77;100.00
81641;BME280;74020;50.722;-1.944;2024-03-07T02:34:33;101611.73;;;5.71;100.00
81641;BME280;74020;50.722;-1.944;2024-03-07T02:36:59;101609.21;;;5.72;100.00
81641;BME280;74020;50.722;-1.944;2024-03-07T02:39:24;101608.91;;;5.73;100.00
81641;BME280;74020;50.722;-1.944;2024-03-07T02:41:49;101609.89;;;5.68;100.00
81641;BME280;74020;50.722;-1.944;2024-03-07T02:44:15;101608.81;;;5.67;100.00
81641;BME280;74020;50.722;-1.944;2024-03-07T02:46:41;101606.08;;;5.68;100.00
81641;BME280;74020;50.722;-1.944;2024-03-07T02:49:06;101605.20;;;5.66;100.00
81641;BME280;74020;50.722;-1.944;2024-03-07T02:51:32;101603.91;;;5.65;100.00
81641;BME280;74020;50.722;-1.944;2024-03-07T02:53:57;101603.24;;;5.69;100.00
81641;BME280;74020;50.722;-1.944;2024-03-07T02:56:23;101597.28;;;5.65;100.00
81641;BME280;74020;50.722;-1.944;2024-03-07T02:58:48;101596.16;;;5.56;100.00
81641;BME280;74020;50.722;-1.944;2024-03-07T03:01:14;101598.53;;;5.57;100.00
81641;BME280;74020;50.722;-1.944;2024-03-07T03:03:40;101598.69;;;5.57;100.00
81641;BME280;74020;50.722;-1.944;2024-03-07T03:06:05;101600.54;;;5.57;100.00
81641;BME280;74020;50.722;-1.944;2024-03-07T03:08:31;101600.13;;;5.61;100.00
81641;BME280;74020;50.722;-1.944;2024-03-07T03:10:57;101596.61;;;5.58;100.00
81641;BME280;74020;50.722;-1.944;2024-03-07T03:13:23;101599.07;;;5.49;100.00
81641;BME280;74020;50.722;-1.944;2024-03-07T03:15:47;101594.67;;;5.49;100.00
81641;BME280;74020;50.722;-1.944;2024-03-07T03:18:13;101590.27;;;5.46;100.00
81641;BME280;74020;50.722;-1.944;2024-03-07T03:20:39;101590.24;;;5.45;100.00
81641;BME280;74020;50.722;-1.944;2024-03-07T03:23:05;101590.20;;;5.52;100.00
81641;BME280;74020;50.722;-1.944;2024-03-07T03:25:30;101586.85;;;5.54;100.00
81641;BME280;74020;50.722;-1.944;2024-03-07T03:27:55;101586.60;;;5.48;100.00
81641;BME280;74020;50.722;-1.944;2024-03-07T03:30:21;101586.88;;;5.50;100.00
81641;BME280;74020;50.722;-1.944;2024-03-07T03:32:47;101588.35;;;5.55;100.00
81641;BME280;74020;50.722;-1.944;2024-03-07T03:35:12;101587.96;;;5.56;100.00
81641;BME280;74020;50.722;-1.944;2024-03-07T03:37:37;101584.64;;;5.56;100.00
81641;BME280;74020;50.722;-1.944;2024-03-07T03:40:03;101580.93;;;5.52;100.00
81641;BME280;74020;50.722;-1.944;2024-03-07T03:42:28;101577.48;;;5.58;100.00
81641;BME280;74020;50.722;-1.944;2024-03-07T03:44:55;101576.48;;;5.51;100.00
81641;BME280;74020;50.722;-1.944;2024-03-07T03:47:19;101578.29;;;5.53;100.00
81641;BME280;74020;50.722;-1.944;2024-03-07T03:49:44;101574.26;;;5.45;100.00
81641;BME280;74020;50.722;-1.944;2024-03-07T03:52:10;101576.42;;;5.49;100.00
81641;BME280;74020;50.722;-1.944;2024-03-07T03:54:35;101574.37;;;5.37;100.00
81641;BME280;74020;50.722;-1.944;2024-03-07T03:57:03;101571.84;;;5.36;100.00
81641;BME280;74020;50.722;-1.944;2024-03-07T03:59:26;101573.89;;;5.39;100.00
81641;BME280;74020;50.722;-1.944;2024-03-07T04:01:52;101571.48;;;5.37;100.00
81641;BME280;74020;50.722;-1.944;2024-03-07T04:04:17;101570.01;;;5.32;100.00
81641;BME280;74020;50.722;-1.944;2024-03-07T04:06:42;101571.44;;;5.40;100.00
81641;BME280;74020;50.722;-1.944;2024-03-07T04:09:10;101567.99;;;5.19;100.00
81641;BME280;74020;50.722;-1.944;2024-03-07T04:11:34;101566.64;;;5.13;100.00
81641;BME280;74020;50.722;-1.944;2024-03-07T04:14:00;101564.80;;;5.18;100.00
81641;BME280;74020;50.722;-1.944;2024-03-07T04:16:25;101564.54;;;5.20;100.00
81641;BME280;74020;50.722;-1.944;2024-03-07T04:18:50;101565.19;;;5.17;100.00
81641;BME280;74020;50.722;-1.944;2024-03-07T04:21:17;101563.29;;;5.14;100.00
81641;BME280;74020;50.722;-1.944;2024-03-07T04:23:41;101562.23;;;5.22;100.00
81641;BME280;74020;50.722;-1.944;2024-03-07T04:26:06;101561.42;;;5.21;100.00
81641;BME280;74020;50.722;-1.944;2024-03-07T04:28:31;101561.72;;;5.11;100.00
81641;BME280;74020;50.722;-1.944;2024-03-07T04:30:57;101563.70;;;5.10;100.00
81641;BME280;74020;50.722;-1.944;2024-03-07T04:33:22;101564.55;;;5.17;100.00
81641;BME280;74020;50.722;-1.944;2024-03-07T04:35:48;101559.75;;;5.18;100.00
81641;BME280;74020;50.722;-1.944;2024-03-07T04:38:14;101557.73;;;5.04;100.00
81641;BME280;74020;50.722;-1.944;2024-03-07T04:40:39;101560.52;;;5.03;100.00
81641;BME280;74020;50.722;-1.944;2024-03-07T04:43:04;101558.66;;;5.01;100.00
81641;BME280;74020;50.722;-1.944;2024-03-07T04:45:30;101558.51;;;5.06;100.00
81641;BME280;74020;50.722;-1.944;2024-03-07T04:47:55;101556.10;;;5.01;100.00
81641;BME280;74020;50.722;-1.944;2024-03-07T04:50:21;101555.82;;;5.04;100.00
81641;BME280;74020;50.722;-1.944;2024-03-07T04:52:47;101554.57;;;4.96;100.00
81641;BME280;74020;50.722;-1.944;2024-03-07T04:55:11;101553.46;;;4.94;100.00
81641;BME280;74020;50.722;-1.944;2024-03-07T04:57:37;101551.96;;;5.05;100.00
81641;BME280;74020;50.722;-1.944;2024-03-07T05:00:02;101552.48;;;4.91;100.00
81641;BME280;74020;50.722;-1.944;2024-03-07T05:02:27;101556.67;;;4.91;100.00
81641;BME280;74020;50.722;-1.944;2024-03-07T05:04:52;101558.05;;;5.01;100.00
81641;BME280;74020;50.722;-1.944;2024-03-07T05:07:18;101559.04;;;4.92;100.00
81641;BME280;74020;50.722;-1.944;2024-03-07T05:09:44;101558.09;;;4.93;100.00
81641;BME280;74020;50.722;-1.944;2024-03-07T05:12:09;101557.34;;;4.84;100.00
81641;BME280;74020;50.722;-1.944;2024-03-07T05:14:35;101556.82;;;4.79;100.00
81641;BME280;74020;50.722;-1.944;2024-03-07T05:17:00;101555.43;;;4.78;100.00
81641;BME280;74020;50.722;-1.944;2024-03-07T05:19:26;101553.81;;;4.78;100.00
81641;BME280;74020;50.722;-1.944;2024-03-07T05:21:51;101554.49;;;4.79;100.00
81641;BME280;74020;50.722;-1.944;2024-03-07T05:24:16;101554.05;;;4.73;100.00
81641;BME280;74020;50.722;-1.944;2024-03-07T05:26:41;101555.15;;;4.75;100.00
81641;BME280;74020;50.722;-1.944;2024-03-07T05:29:08;101556.13;;;4.81;100.00
81641;BME280;74020;50.722;-1.944;2024-03-07T05:31:32;101553.11;;;4.77;100.00
81641;BME280;74020;50.722;-1.944;2024-03-07T05:33:57;101552.64;;;4.70;100.00
81641;BME280;74020;50.722;-1.944;2024-03-07T05:36:22;101554.80;;;4.64;100.00
81641;BME280;74020;50.722;-1.944;2024-03-07T05:38:48;101551.30;;;4.60;100.00
81641;BME280;74020;50.722;-1.944;2024-03-07T05:41:13;101552.80;;;4.67;100.00
81641;BME280;74020;50.722;-1.944;2024-03-07T05:43:40;101552.33;;;4.66;100.00
81641;BME280;74020;50.722;-1.944;2024-03-07T05:46:04;101553.39;;;4.61;100.00
81641;BME280;74020;50.722;-1.944;2024-03-07T05:48:29;101553.57;;;4.53;100.00
81641;BME280;74020;50.722;-1.944;2024-03-07T05:50:55;101551.22;;;4.64;100.00
81641;BME280;74020;50.722;-1.944;2024-03-07T05:53:20;101549.91;;;4.58;100.00
81641;BME280;74020;50.722;-1.944;2024-03-07T05:55:45;101548.75;;;4.50;100.00
81641;BME280;74020;50.722;-1.944;2024-03-07T05:58:11;101550.48;;;4.56;100.00
81641;BME280;74020;50.722;-1.944;2024-03-07T06:00:36;101547.70;;;4.57;100.00
81641;BME280;74020;50.722;-1.944;2024-03-07T06:03:02;101547.59;;;4.64;100.00
81641;BME280;74020;50.722;-1.944;2024-03-07T06:05:26;101547.61;;;4.63;100.00
81641;BME280;74020;50.722;-1.944;2024-03-07T06:07:51;101546.57;;;4.63;100.00
81641;BME280;74020;50.722;-1.944;2024-03-07T06:10:17;101543.67;;;4.58;100.00
81641;BME280;74020;50.722;-1.944;2024-03-07T06:12:42;101544.14;;;4.60;100.00
81641;BME280;74020;50.722;-1.944;2024-03-07T06:15:08;101544.55;;;4.55;100.00
81641;BME280;74020;50.722;-1.944;2024-03-07T06:17:33;101546.52;;;4.60;100.00
81641;BME280;74020;50.722;-1.944;2024-03-07T06:19:58;101549.35;;;4.56;100.00
81641;BME280;74020;50.722;-1.944;2024-03-07T06:22:24;101551.18;;;4.57;100.00
81641;BME280;74020;50.722;-1.944;2024-03-07T06:24:49;101555.91;;;4.53;100.00
81641;BME280;74020;50.722;-1.944;2024-03-07T06:27:14;101555.45;;;4.54;100.00
81641;BME280;74020;50.722;-1.944;2024-03-07T06:29:39;101555.27;;;4.59;100.00
81641;BME280;74020;50.722;-1.944;2024-03-07T06:32:05;101555.44;;;4.61;100.00
81641;BME280;74020;50.722;-1.944;2024-03-07T06:34:30;101554.93;;;4.50;100.00
81641;BME280;74020;50.722;-1.944;2024-03-07T06:36:56;101553.72;;;4.54;100.00
81641;BME280;74020;50.722;-1.944;2024-03-07T06:39:21;101554.79;;;4.49;100.00
81641;BME280;74020;50.722;-1.944;2024-03-07T06:41:46;101553.34;;;4.51;100.00
81641;BME280;74020;50.722;-1.944;2024-03-07T06:44:12;101556.72;;;4.60;100.00
81641;BME280;74020;50.722;-1.944;2024-03-07T06:46:37;101553.09;;;4.49;100.00
81641;BME280;74020;50.722;-1.944;2024-03-07T06:49:03;101554.63;;;4.58;100.00
81641;BME280;74020;50.722;-1.944;2024-03-07T06:51:28;101558.91;;;4.45;100.00
81641;BME280;74020;50.722;-1.944;2024-03-07T06:53:53;101557.89;;;4.55;100.00
81641;BME280;74020;50.722;-1.944;2024-03-07T06:56:19;101552.95;;;4.55;100.00
81641;BME280;74020;50.722;-1.944;2024-03-07T06:58:45;101555.49;;;4.52;100.00
81641;BME280;74020;50.722;-1.944;2024-03-07T07:01:10;101550.51;;;4.41;100.00
81641;BME280;74020;50.722;-1.944;2024-03-07T07:03:36;101552.61;;;4.52;100.00
81641;BME280;74020;50.722;-1.944;2024-03-07T07:06:01;101552.29;;;4.55;100.00
81641;BME280;74020;50.722;-1.944;2024-03-07T07:08:26;101553.54;;;4.55;100.00
81641;BME280;74020;50.722;-1.944;2024-03-07T07:10:52;101553.92;;;4.65;100.00
81641;BME280;74020;50.722;-1.944;2024-03-07T07:13:17;101555.34;;;4.68;100.00
81641;BME280;74020;50.722;-1.944;2024-03-07T07:15:43;101553.34;;;4.73;100.00
81641;BME280;74020;50.722;-1.944;2024-03-07T07:18:10;101553.33;;;4.83;100.00
81641;BME280;74020;50.722;-1.944;2024-03-07T07:20:34;101552.20;;;4.80;100.00
81641;BME280;74020;50.722;-1.944;2024-03-07T07:22:59;101557.63;;;4.88;100.00
81641;BME280;74020;50.722;-1.944;2024-03-07T07:25:24;101553.19;;;4.97;100.00
81641;BME280;74020;50.722;-1.944;2024-03-07T07:27:50;101557.20;;;4.97;100.00
81641;BME280;74020;50.722;-1.944;2024-03-07T07:30:16;101556.41;;;4.99;100.00
81641;BME280;74020;50.722;-1.944;2024-03-07T07:32:41;101553.33;;;5.07;100.00
81641;BME280;74020;50.722;-1.944;2024-03-07T07:35:07;101551.57;;;5.08;100.00
81641;BME280;74020;50.722;-1.944;2024-03-07T07:37:31;101548.85;;;5.20;100.00
81641;BME280;74020;50.722;-1.944;2024-03-07T07:39:57;101555.17;;;5.22;100.00
81641;BME280;74020;50.722;-1.944;2024-03-07T07:42:22;101553.66;;;5.16;100.00
81641;BME280;74020;50.722;-1.944;2024-03-07T07:44:48;101552.57;;;5.29;100.00
81641;BME280;74020;50.722;-1.944;2024-03-07T07:47:13;101554.43;;;5.20;100.00
81641;BME280;74020;50.722;-1.944;2024-03-07T07:49:39;101556.00;;;5.35;100.00
81641;BME280;74020;50.722;-1.944;2024-03-07T07:52:05;101555.01;;;5.33;100.00
81641;BME280;74020;50.722;-1.944;2024-03-07T07:54:30;101554.02;;;5.47;100.00
81641;BME280;74020;50.722;-1.944;2024-03-07T07:56:55;101549.12;;;5.42;100.00
81641;BME280;74020;50.722;-1.944;2024-03-07T07:59:21;101549.33;;;5.45;100.00
81641;BME280;74020;50.722;-1.944;2024-03-07T08:01:46;101547.02;;;5.51;100.00
81641;BME280;74020;50.722;-1.944;2024-03-07T08:04:11;101539.19;;;5.62;100.00
81641;BME280;74020;50.722;-1.944;2024-03-07T08:06:37;101537.41;;;5.74;100.00
81641;BME280;74020;50.722;-1.944;2024-03-07T08:09:02;101534.11;;;5.66;100.00
81641;BME280;74020;50.722;-1.944;2024-03-07T08:11:28;101537.41;;;5.69;100.00
81641;BME280;74020;50.722;-1.944;2024-03-07T08:13:53;101530.61;;;5.72;100.00
81641;BME280;74020;50.722;-1.944;2024-03-07T08:16:19;101529.16;;;5.71;100.00
81641;BME280;74020;50.722;-1.944;2024-03-07T08:18:45;101529.93;;;5.76;100.00
81641;BME280;74020;50.722;-1.944;2024-03-07T08:21:10;101529.96;;;5.82;100.00
81641;BME280;74020;50.722;-1.944;2024-03-07T08:23:36;101527.60;;;5.90;100.00
81641;BME280;74020;50.722;-1.944;2024-03-07T08:26:01;101531.48;;;5.99;100.00
81641;BME280;74020;50.722;-1.944;2024-03-07T08:28:26;101531.03;;;6.02;100.00
81641;BME280;74020;50.722;-1.944;2024-03-07T08:30:52;101526.98;;;6.19;100.00
81641;BME280;74020;50.722;-1.944;2024-03-07T08:33:18;101522.43;;;6.25;100.00
81641;BME280;74020;50.722;-1.944;2024-03-07T08:35:43;101521.91;;;6.48;100.00
81641;BME280;74020;50.722;-1.944;2024-03-07T08:38:09;101515.43;;;6.42;100.00
81641;BME280;74020;50.722;-1.944;2024-03-07T08:40:34;101515.37;;;6.38;100.00
81641;BME280;74020;50.722;-1.944;2024-03-07T08:43:01;101518.33;;;6.52;100.00
81641;BME280;74020;50.722;-1.944;2024-03-07T08:45:29;101514.21;;;6.41;100.00
81641;BME280;74020;50.722;-1.944;2024-03-07T08:47:53;101510.08;;;6.41;100.00
81641;BME280;74020;50.722;-1.944;2024-03-07T08:50:18;101511.58;;;6.46;100.00
81641;BME280;74020;50.722;-1.944;2024-03-07T08:52:43;101511.12;;;6.55;100.00
81641;BME280;74020;50.722;-1.944;2024-03-07T08:55:09;101508.73;;;6.53;100.00
81641;BME280;74020;50.722;-1.944;2024-03-07T08:57:34;101509.21;;;6.66;100.00
81641;BME280;74020;50.722;-1.944;2024-03-07T09:00:00;101504.78;;;6.73;100.00
81641;BME280;74020;50.722;-1.944;2024-03-07T09:02:25;101500.10;;;6.86;100.00
81641;BME280;74020;50.722;-1.944;2024-03-07T09:04:51;101495.27;;;6.77;100.00
81641;BME280;74020;50.722;-1.944;2024-03-07T09:07:16;101499.37;;;6.82;100.00
81641;BME280;74020;50.722;-1.944;2024-03-07T09:09:42;101497.81;;;6.83;100.00
81641;BME280;74020;50.722;-1.944;2024-03-07T09:12:08;101499.61;;;6.92;100.00
81641;BME280;74020;50.722;-1.944;2024-03-07T09:14:33;101496.52;;;6.89;100.00
81641;BME280;74020;50.722;-1.944;2024-03-07T09:16:58;101493.75;;;7.14;100.00
81641;BME280;74020;50.722;-1.944;2024-03-07T09:19:24;101492.21;;;7.11;100.00
81641;BME280;74020;50.722;-1.944;2024-03-07T09:21:51;101489.89;;;7.10;100.00
81641;BME280;74020;50.722;-1.944;2024-03-07T09:24:15;101483.94;;;7.22;100.00
81641;BME280;74020;50.722;-1.944;2024-03-07T09:26:40;101479.34;;;7.47;100.00
81641;BME280;74020;50.722;-1.944;2024-03-07T09:29:06;101473.77;;;7.34;100.00
81641;BME280;74020;50.722;-1.944;2024-03-07T09:31:32;101476.49;;;7.35;100.00
81641;BME280;74020;50.722;-1.944;2024-03-07T09:33:57;101474.72;;;7.32;100.00
81641;BME280;74020;50.722;-1.944;2024-03-07T09:36:23;101474.78;;;7.22;100.00
81641;BME280;74020;50.722;-1.944;2024-03-07T09:38:48;101471.47;;;7.22;100.00
81641;BME280;74020;50.722;-1.944;2024-03-07T09:41:15;101472.07;;;7.31;100.00
81641;BME280;74020;50.722;-1.944;2024-03-07T09:43:40;101467.98;;;7.27;100.00
81641;BME280;74020;50.722;-1.944;2024-03-07T09:46:07;101468.10;;;7.27;100.00
81641;BME280;74020;50.722;-1.944;2024-03-07T09:48:31;101468.12;;;7.28;100.00
81641;BME280;74020;50.722;-1.944;2024-03-07T09:50:59;101470.00;;;7.33;100.00
81641;BME280;74020;50.722;-1.944;2024-03-07T09:53:22;101469.95;;;7.42;100.00
81641;BME280;74020;50.722;-1.944;2024-03-07T09:55:47;101467.34;;;7.67;100.00
81641;BME280;74020;50.722;-1.944;2024-03-07T09:58:12;101459.91;;;7.73;100.00
81641;BME280;74020;50.722;-1.944;2024-03-07T10:00:37;101463.50;;;7.82;100.00
81641;BME280;74020;50.722;-1.944;2024-03-07T10:03:06;101460.47;;;7.93;100.00
81641;BME280;74020;50.722;-1.944;2024-03-07T10:05:28;101456.71;;;8.26;100.00
81641;BME280;74020;50.722;-1.944;2024-03-07T10:07:54;101453.41;;;8.24;100.00
81641;BME280;74020;50.722;-1.944;2024-03-07T10:10:20;101449.96;;;8.42;99.44
81641;BME280;74020;50.722;-1.944;2024-03-07T10:12:45;101448.36;;;8.46;99.83
81641;BME280;74020;50.722;-1.944;2024-03-07T10:15:11;101450.59;;;8.58;98.19
81641;BME280;74020;50.722;-1.944;2024-03-07T10:17:37;101448.52;;;8.52;97.41
81641;BME280;74020;50.722;-1.944;2024-03-07T10:20:02;101449.97;;;8.51;96.76
81641;BME280;74020;50.722;-1.944;2024-03-07T10:22:27;101451.23;;;8.60;96.46
81641;BME280;74020;50.722;-1.944;2024-03-07T10:24:53;101449.30;;;8.50;96.16
81641;BME280;74020;50.722;-1.944;2024-03-07T10:27:18;101446.30;;;8.43;95.82
81641;BME280;74020;50.722;-1.944;2024-03-07T10:29:43;101446.40;;;8.32;94.74
81641;BME280;74020;50.722;-1.944;2024-03-07T10:32:11;101441.89;;;8.65;94.33
81641;BME280;74020;50.722;-1.944;2024-03-07T10:34:34;101443.40;;;8.58;94.12
81641;BME280;74020;50.722;-1.944;2024-03-07T10:37:00;101442.13;;;8.42;95.05
81641;BME280;74020;50.722;-1.944;2024-03-07T10:39:25;101446.38;;;8.54;93.87
81641;BME280;74020;50.722;-1.944;2024-03-07T10:41:50;101446.30;;;8.47;93.81
81641;BME280;74020;50.722;-1.944;2024-03-07T10:44:19;101440.69;;;8.57;92.41
81641;BME280;74020;50.722;-1.944;2024-03-07T10:46:41;101440.75;;;8.71;92.69
81641;BME280;74020;50.722;-1.944;2024-03-07T10:49:08;101432.91;;;8.61;93.66
81641;BME280;74020;50.722;-1.944;2024-03-07T10:51:38;101433.49;;;8.65;93.21
81641;BME280;74020;50.722;-1.944;2024-03-07T10:54:03;101433.29;;;8.66;92.97
81641;BME280;74020;50.722;-1.944;2024-03-07T10:56:30;101429.45;;;8.63;92.30
81641;BME280;74020;50.722;-1.944;2024-03-07T10:58:58;101420.01;;;8.41;93.28
81641;BME280;74020;50.722;-1.944;2024-03-07T11:01:14;101423.09;;;8.62;92.30
81641;BME280;74020;50.722;-1.944;2024-03-07T11:03:39;101422.25;;;8.78;91.77
81641;BME280;74020;50.722;-1.944;2024-03-07T11:06:06;101411.27;;;8.81;90.91
81641;BME280;74020;50.722;-1.944;2024-03-07T11:08:30;101418.84;;;8.73;91.89
81641;BME280;74020;50.722;-1.944;2024-03-07T11:10:55;101412.82;;;8.88;92.12
81641;BME280;74020;50.722;-1.944;2024-03-07T11:13:20;101416.28;;;8.76;92.11
81641;BME280;74020;50.722;-1.944;2024-03-07T11:15:48;101411.21;;;8.69;92.86
81641;BME280;74020;50.722;-1.944;2024-03-07T11:18:11;101408.08;;;8.92;91.89
81641;BME280;74020;50.722;-1.944;2024-03-07T11:20:38;101405.08;;;8.86;92.49
81641;BME280;74020;50.722;-1.944;2024-03-07T11:25:28;101397.38;;;9.07;90.59
81641;BME280;74020;50.722;-1.944;2024-03-07T11:27:55;101398.84;;;8.97;91.02
81641;BME280;74020;50.722;-1.944;2024-03-07T11:30:18;101394.95;;;9.00;91.52
81641;BME280;74020;50.722;-1.944;2024-03-07T11:32:43;101393.63;;;9.02;91.68
81641;BME280;74020;50.722;-1.944;2024-03-07T11:35:12;101385.03;;;9.28;90.23
81641;BME280;74020;50.722;-1.944;2024-03-07T11:37:38;101382.13;;;9.34;89.51
81641;BME280;74020;50.722;-1.944;2024-03-07T11:40:01;101373.81;;;9.39;89.24
81641;BME280;74020;50.722;-1.944;2024-03-07T11:42:25;101371.07;;;9.44;88.52
81641;BME280;74020;50.722;-1.944;2024-03-07T11:44:50;101368.28;;;9.47;86.53
81641;BME280;74020;50.722;-1.944;2024-03-07T11:47:15;101363.65;;;9.53;85.84
81641;BME280;74020;50.722;-1.944;2024-03-07T11:49:40;101358.20;;;9.54;86.28
81641;BME280;74020;50.722;-1.944;2024-03-07T11:52:06;101353.08;;;9.72;85.38
81641;BME280;74020;50.722;-1.944;2024-03-07T11:54:31;101343.94;;;9.75;84.43
81641;BME280;74020;50.722;-1.944;2024-03-07T11:56:57;101343.61;;;9.91;85.29
81641;BME280;74020;50.722;-1.944;2024-03-07T11:59:23;101341.05;;;10.03;84.92
81641;BME280;74020;50.722;-1.944;2024-03-07T12:01:49;101340.60;;;10.19;84.34
81641;BME280;74020;50.722;-1.944;2024-03-07T12:04:13;101334.56;;;10.49;83.14
81641;BME280;74020;50.722;-1.944;2024-03-07T12:06:39;101333.45;;;10.66;83.72
81641;BME280;74020;50.722;-1.944;2024-03-07T12:09:05;101329.05;;;10.79;81.91
81641;BME280;74020;50.722;-1.944;2024-03-07T12:11:29;101318.49;;;10.92;81.24
81641;BME280;74020;50.722;-1.944;2024-03-07T12:13:54;101324.43;;;10.72;80.04
81641;BME280;74020;50.722;-1.944;2024-03-07T12:16:20;101309.43;;;10.83;78.32
81641;BME280;74020;50.722;-1.944;2024-03-07T12:18:45;101306.36;;;10.87;80.62
81641;BME280;74020;50.722;-1.944;2024-03-07T12:21:10;101296.57;;;11.01;78.00
81641;BME280;74020;50.722;-1.944;2024-03-07T12:23:38;101294.97;;;11.11;77.71
81641;BME280;74020;50.722;-1.944;2024-03-07T12:26:02;101294.48;;;11.29;77.07
81641;BME280;74020;50.722;-1.944;2024-03-07T12:28:28;101289.35;;;11.21;76.35
81641;BME280;74020;50.722;-1.944;2024-03-07T12:30:54;101283.81;;;11.40;76.47
81641;BME280;74020;50.722;-1.944;2024-03-07T12:33:18;101276.72;;;11.38;75.34